sensor_id;sensor_type;location;lat;lon;timestamp;temperature;humidity
40153;DHT22;26371;56.992;23.912;2023-07-24T00:01:57;13.50;99.90
40153;DHT22;26371;56.992;23.912;2023-07-24T00:04:25;13.50;99.90
40153;DHT22;26371;56.992;23.912;2023-07-24T00:06:54;13.50;99.90
40153;DHT22;26371;56.992;23.912;2023-07-24T00:09:22;13.50;99.90
40153;DHT22;26371;56.992;23.912;2023-07-24T00:11:51;13.40;99.90
40153;DHT22;26371;56.992;23.912;2023-07-24T00:14:19;13.40;99.90
40153;DHT22;26371;56.992;23.912;2023-07-24T00:16:47;13.40;99.90
40153;DHT22;26371;56.992;23.912;2023-07-24T00:19:18;13.40;99.90
40153;DHT22;26371;56.992;23.912;2023-07-24T00:21:47;13.40;99.90
40153;DHT22;26371;56.992;23.912;2023-07-24T00:24:15;13.40;99.90
40153;DHT22;26371;56.992;23.912;2023-07-24T00:26:44;13.40;99.90
40153;DHT22;26371;56.992;23.912;2023-07-24T00:29:12;13.30;99.90
40153;DHT22;26371;56.992;23.912;2023-07-24T00:31:41;13.30;99.90
40153;DHT22;26371;56.992;23.912;2023-07-24T00:34:10;13.40;99.90
40153;DHT22;26371;56.992;23.912;2023-07-24T00:36:40;13.30;99.90
40153;DHT22;26371;56.992;23.912;2023-07-24T00:39:09;13.30;99.90
40153;DHT22;26371;56.992;23.912;2023-07-24T00:41:37;13.30;99.90
40153;DHT22;26371;56.992;23.912;2023-07-24T00:44:06;13.30;99.90
40153;DHT22;26371;56.992;23.912;2023-07-24T00:46:34;13.30;99.90
40153;DHT22;26371;56.992;23.912;2023-07-24T00:49:03;13.30;99.90
40153;DHT22;26371;56.992;23.912;2023-07-24T00:51:32;13.30;99.90
40153;DHT22;26371;56.992;23.912;2023-07-24T00:54:02;13.30;99.90
40153;DHT22;26371;56.992;23.912;2023-07-24T00:56:31;13.30;99.90
40153;DHT22;26371;56.992;23.912;2023-07-24T00:58:59;13.20;99.90
40153;DHT22;26371;56.992;23.912;2023-07-24T01:01:28;13.30;99.90
40153;DHT22;26371;56.992;23.912;2023-07-24T01:03:57;13.30;99.90
40153;DHT22;26371;56.992;23.912;2023-07-24T01:06:25;13.20;99.90
40153;DHT22;26371;56.992;23.912;2023-07-24T01:08:56;13.10;99.90
40153;DHT22;26371;56.992;23.912;2023-07-24T01:11:27;13.10;99.90
40153;DHT22;26371;56.992;23.912;2023-07-24T01:13:56;13.10;99.90
40153;DHT22;26371;56.992;23.912;2023-07-24T01:16:26;13.10;99.90
40153;DHT22;26371;56.992;23.912;2023-07-24T01:19:00;13.10;99.90
40153;DHT22;26371;56.992;23.912;2023-07-24T01:21:33;13.10;99.90
40153;DHT22;26371;56.992;23.912;2023-07-24T01:24:03;13.10;99.90
40153;DHT22;26371;56.992;23.912;2023-07-24T01:26:39;13.10;99.90
40153;DHT22;26371;56.992;23.912;2023-07-24T01:29:07;13.10;99.90
40153;DHT22;26371;56.992;23.912;2023-07-24T01:31:36;13.10;99.90
40153;DHT22;26371;56.992;23.912;2023-07-24T01:34:04;13.10;99.90
40153;DHT22;26371;56.992;23.912;2023-07-24T01:36:33;13.10;99.90
40153;DHT22;26371;56.992;23.912;2023-07-24T01:39:01;13.10;99.90
40153;DHT22;26371;56.992;23.912;2023-07-24T01:41:31;13.10;99.90
40153;DHT22;26371;56.992;23.912;2023-07-24T01:44:01;13.10;99.90
40153;DHT22;26371;56.992;23.912;2023-07-24T01:46:30;13.10;99.90
40153;DHT22;26371;56.992;23.912;2023-07-24T01:48:58;13.10;99.90
40153;DHT22;26371;56.992;23.912;2023-07-24T01:51:27;13.10;99.90
40153;DHT22;26371;56.992;23.912;2023-07-24T01:53:55;13.10;99.90
40153;DHT22;26371;56.992;23.912;2023-07-24T01:56:24;13.10;99.90
40153;DHT22;26371;56.992;23.912;2023-07-24T01:58:53;13.10;99.90
40153;DHT22;26371;56.992;23.912;2023-07-24T02:01:23;13.10;99.90
40153;DHT22;26371;56.992;23.912;2023-07-24T02:03:51;13.10;99.90
40153;DHT22;26371;56.992;23.912;2023-07-24T02:06:19;13.10;99.90
40153;DHT22;26371;56.992;23.912;2023-07-24T02:08:49;13.10;99.90
40153;DHT22;26371;56.992;23.912;2023-07-24T02:11:18;13.10;99.90
40153;DHT22;26371;56.992;23.912;2023-07-24T02:13:47;13.20;99.90
40153;DHT22;26371;56.992;23.912;2023-07-24T02:16:15;13.20;99.90
40153;DHT22;26371;56.992;23.912;2023-07-24T02:18:46;13.20;99.90
40153;DHT22;26371;56.992;23.912;2023-07-24T02:21:14;13.20;99.90
40153;DHT22;26371;56.992;23.912;2023-07-24T02:23:43;13.30;99.90
40153;DHT22;26371;56.992;23.912;2023-07-24T02:26:11;13.30;99.90
40153;DHT22;26371;56.992;23.912;2023-07-24T02:28:40;13.30;99.90
40153;DHT22;26371;56.992;23.912;2023-07-24T02:31:08;13.40;99.90
40153;DHT22;26371;56.992;23.912;2023-07-24T02:33:36;13.40;99.90
40153;DHT22;26371;56.992;23.912;2023-07-24T02:36:07;13.40;99.90
40153;DHT22;26371;56.992;23.912;2023-07-24T02:38:36;13.40;99.90
40153;DHT22;26371;56.992;23.912;2023-07-24T02:41:06;13.40;99.90
40153;DHT22;26371;56.992;23.912;2023-07-24T02:43:35;13.40;99.90
40153;DHT22;26371;56.992;23.912;2023-07-24T02:46:03;13.50;99.90
40153;DHT22;26371;56.992;23.912;2023-07-24T02:48:32;13.50;99.90
40153;DHT22;26371;56.992;23.912;2023-07-24T02:51:00;13.50;99.90
40153;DHT22;26371;56.992;23.912;2023-07-24T02:53:30;13.50;99.90
40153;DHT22;26371;56.992;23.912;2023-07-24T02:55:58;13.50;99.90
40153;DHT22;26371;56.992;23.912;2023-07-24T02:58:28;13.60;99.90
40153;DHT22;26371;56.992;23.912;2023-07-24T03:01:02;13.60;99.90
40153;DHT22;26371;56.992;23.912;2023-07-24T03:03:31;13.70;99.90
40153;DHT22;26371;56.992;23.912;2023-07-24T03:05:59;13.60;99.90
40153;DHT22;26371;56.992;23.912;2023-07-24T03:08:29;13.70;99.90
40153;DHT22;26371;56.992;23.912;2023-07-24T03:10:58;13.70;99.90
40153;DHT22;26371;56.992;23.912;2023-07-24T03:13:27;13.70;99.90
40153;DHT22;26371;56.992;23.912;2023-07-24T03:15:57;13.80;99.90
40153;DHT22;26371;56.992;23.912;2023-07-24T03:18:27;13.80;99.90
40153;DHT22;26371;56.992;23.912;2023-07-24T03:20:57;13.90;99.90
40153;DHT22;26371;56.992;23.912;2023-07-24T03:23:25;13.90;99.90
40153;DHT22;26371;56.992;23.912;2023-07-24T03:25:55;13.90;99.90
40153;DHT22;26371;56.992;23.912;2023-07-24T03:28:23;14.00;99.90
40153;DHT22;26371;56.992;23.912;2023-07-24T03:30:52;14.00;99.90
40153;DHT22;26371;56.992;23.912;2023-07-24T03:33:21;14.00;99.90
40153;DHT22;26371;56.992;23.912;2023-07-24T03:35:50;14.00;99.90
40153;DHT22;26371;56.992;23.912;2023-07-24T03:38:20;14.00;99.90
40153;DHT22;26371;56.992;23.912;2023-07-24T03:40:50;14.00;99.90
40153;DHT22;26371;56.992;23.912;2023-07-24T03:43:20;14.00;99.90
40153;DHT22;26371;56.992;23.912;2023-07-24T03:45:48;14.00;99.90
40153;DHT22;26371;56.992;23.912;2023-07-24T03:48:17;14.00;99.90
40153;DHT22;26371;56.992;23.912;2023-07-24T03:50:46;14.10;99.90
40153;DHT22;26371;56.992;23.912;2023-07-24T03:53:14;14.10;99.90
40153;DHT22;26371;56.992;23.912;2023-07-24T03:55:42;14.10;99.90
40153;DHT22;26371;56.992;23.912;2023-07-24T03:58:11;14.10;99.90
40153;DHT22;26371;56.992;23.912;2023-07-24T04:00:41;14.10;99.90
40153;DHT22;26371;56.992;23.912;2023-07-24T04:03:09;14.20;99.90
40153;DHT22;26371;56.992;23.912;2023-07-24T04:05:38;14.20;99.90
40153;DHT22;26371;56.992;23.912;2023-07-24T04:08:06;14.20;99.90
40153;DHT22;26371;56.992;23.912;2023-07-24T04:10:34;14.30;99.90
40153;DHT22;26371;56.992;23.912;2023-07-24T04:13:03;14.30;99.90
40153;DHT22;26371;56.992;23.912;2023-07-24T04:15:31;14.40;99.90
40153;DHT22;26371;56.992;23.912;2023-07-24T04:18:01;14.40;99.90
40153;DHT22;26371;56.992;23.912;2023-07-24T04:20:33;14.40;99.90
40153;DHT22;26371;56.992;23.912;2023-07-24T04:23:02;14.40;99.90
40153;DHT22;26371;56.992;23.912;2023-07-24T04:25:30;14.40;99.90
40153;DHT22;26371;56.992;23.912;2023-07-24T04:27:59;14.40;99.90
40153;DHT22;26371;56.992;23.912;2023-07-24T04:30:27;14.40;99.90
40153;DHT22;26371;56.992;23.912;2023-07-24T04:32:56;14.40;99.90
40153;DHT22;26371;56.992;23.912;2023-07-24T04:35:26;14.40;99.90
40153;DHT22;26371;56.992;23.912;2023-07-24T04:37:54;14.40;99.90
40153;DHT22;26371;56.992;23.912;2023-07-24T04:40:24;14.50;99.90
40153;DHT22;26371;56.992;23.912;2023-07-24T04:42:52;14.50;99.90
40153;DHT22;26371;56.992;23.912;2023-07-24T04:45:20;14.50;99.90
40153;DHT22;26371;56.992;23.912;2023-07-24T04:47:50;14.50;99.90
40153;DHT22;26371;56.992;23.912;2023-07-24T04:50:18;14.40;99.90
40153;DHT22;26371;56.992;23.912;2023-07-24T04:52:48;14.40;99.90
40153;DHT22;26371;56.992;23.912;2023-07-24T04:55:16;14.50;99.90
40153;DHT22;26371;56.992;23.912;2023-07-24T04:57:45;14.50;99.90
40153;DHT22;26371;56.992;23.912;2023-07-24T05:00:13;14.50;99.90
40153;DHT22;26371;56.992;23.912;2023-07-24T05:02:42;14.60;99.90
40153;DHT22;26371;56.992;23.912;2023-07-24T05:05:10;14.80;99.90
40153;DHT22;26371;56.992;23.912;2023-07-24T05:07:38;14.70;99.90
40153;DHT22;26371;56.992;23.912;2023-07-24T05:10:09;14.70;99.90
40153;DHT22;26371;56.992;23.912;2023-07-24T05:12:40;14.80;99.90
40153;DHT22;26371;56.992;23.912;2023-07-24T05:15:09;14.70;99.90
40153;DHT22;26371;56.992;23.912;2023-07-24T05:17:37;14.70;99.90
40153;DHT22;26371;56.992;23.912;2023-07-24T05:20:06;14.70;99.90
40153;DHT22;26371;56.992;23.912;2023-07-24T05:22:35;14.70;99.90
40153;DHT22;26371;56.992;23.912;2023-07-24T05:25:03;14.70;99.90
40153;DHT22;26371;56.992;23.912;2023-07-24T05:27:33;14.60;99.90
40153;DHT22;26371;56.992;23.912;2023-07-24T05:30:04;14.60;99.90
40153;DHT22;26371;56.992;23.912;2023-07-24T05:32:32;14.60;99.90
40153;DHT22;26371;56.992;23.912;2023-07-24T05:35:01;14.60;99.90
40153;DHT22;26371;56.992;23.912;2023-07-24T05:37:30;14.70;99.90
40153;DHT22;26371;56.992;23.912;2023-07-24T05:39:59;14.60;99.90
40153;DHT22;26371;56.992;23.912;2023-07-24T05:42:27;14.70;99.90
40153;DHT22;26371;56.992;23.912;2023-07-24T05:44:57;14.70;99.90
40153;DHT22;26371;56.992;23.912;2023-07-24T05:47:25;14.80;99.90
40153;DHT22;26371;56.992;23.912;2023-07-24T05:49:54;14.80;99.90
40153;DHT22;26371;56.992;23.912;2023-07-24T05:52:30;14.80;99.90
40153;DHT22;26371;56.992;23.912;2023-07-24T06:02:38;15.20;99.90
40153;DHT22;26371;56.992;23.912;2023-07-24T06:05:07;15.10;99.90
40153;DHT22;26371;56.992;23.912;2023-07-24T07:07:25;16.00;99.90
40153;DHT22;26371;56.992;23.912;2023-07-24T07:09:54;15.90;99.90
40153;DHT22;26371;56.992;23.912;2023-07-24T07:12:22;16.00;99.90
40153;DHT22;26371;56.992;23.912;2023-07-24T07:14:50;16.00;99.90
40153;DHT22;26371;56.992;23.912;2023-07-24T07:17:19;16.10;99.90
40153;DHT22;26371;56.992;23.912;2023-07-24T07:19:47;16.10;99.90
40153;DHT22;26371;56.992;23.912;2023-07-24T07:22:16;16.10;99.90
40153;DHT22;26371;56.992;23.912;2023-07-24T07:24:46;16.10;99.90
40153;DHT22;26371;56.992;23.912;2023-07-24T07:27:14;16.10;99.90
40153;DHT22;26371;56.992;23.912;2023-07-24T07:52:15;16.80;99.90
40153;DHT22;26371;56.992;23.912;2023-07-24T07:57:14;16.90;99.90
40153;DHT22;26371;56.992;23.912;2023-07-24T07:59:45;17.10;99.90
40153;DHT22;26371;56.992;23.912;2023-07-24T08:02:13;17.10;99.90
40153;DHT22;26371;56.992;23.912;2023-07-24T08:04:41;17.10;99.90
40153;DHT22;26371;56.992;23.912;2023-07-24T08:07:10;17.20;99.90
40153;DHT22;26371;56.992;23.912;2023-07-24T08:09:39;17.20;99.90
40153;DHT22;26371;56.992;23.912;2023-07-24T08:12:08;17.10;99.90
40153;DHT22;26371;56.992;23.912;2023-07-24T08:14:36;17.20;99.90
40153;DHT22;26371;56.992;23.912;2023-07-24T08:17:05;17.10;99.90
40153;DHT22;26371;56.992;23.912;2023-07-24T08:19:33;17.20;99.90
40153;DHT22;26371;56.992;23.912;2023-07-24T08:22:02;17.30;99.90
40153;DHT22;26371;56.992;23.912;2023-07-24T08:24:33;17.30;99.90
40153;DHT22;26371;56.992;23.912;2023-07-24T08:27:03;17.30;99.90
40153;DHT22;26371;56.992;23.912;2023-07-24T08:29:32;17.40;99.90
40153;DHT22;26371;56.992;23.912;2023-07-24T08:32:03;17.40;99.90
40153;DHT22;26371;56.992;23.912;2023-07-24T08:34:31;17.40;99.90
40153;DHT22;26371;56.992;23.912;2023-07-24T08:37:00;17.50;99.90
40153;DHT22;26371;56.992;23.912;2023-07-24T08:39:28;17.60;99.90
40153;DHT22;26371;56.992;23.912;2023-07-24T08:41:57;17.70;99.90
40153;DHT22;26371;56.992;23.912;2023-07-24T08:44:26;17.80;99.90
40153;DHT22;26371;56.992;23.912;2023-07-24T08:46:58;17.80;99.90
40153;DHT22;26371;56.992;23.912;2023-07-24T08:49:26;17.90;99.90
40153;DHT22;26371;56.992;23.912;2023-07-24T08:51:57;17.90;99.90
40153;DHT22;26371;56.992;23.912;2023-07-24T08:54:28;17.90;99.90
40153;DHT22;26371;56.992;23.912;2023-07-24T08:56:56;17.90;99.90
40153;DHT22;26371;56.992;23.912;2023-07-24T08:59:25;17.90;99.90
40153;DHT22;26371;56.992;23.912;2023-07-24T09:01:55;17.90;99.90
40153;DHT22;26371;56.992;23.912;2023-07-24T09:04:24;18.10;99.90
40153;DHT22;26371;56.992;23.912;2023-07-24T09:06:53;17.90;99.90
40153;DHT22;26371;56.992;23.912;2023-07-24T09:09:21;17.90;99.90
40153;DHT22;26371;56.992;23.912;2023-07-24T09:11:50;17.90;99.90
40153;DHT22;26371;56.992;23.912;2023-07-24T09:14:22;17.80;99.90
40153;DHT22;26371;56.992;23.912;2023-07-24T09:17:02;17.80;99.90
40153;DHT22;26371;56.992;23.912;2023-07-24T09:19:31;17.80;99.90
40153;DHT22;26371;56.992;23.912;2023-07-24T09:22:09;17.70;99.90
40153;DHT22;26371;56.992;23.912;2023-07-24T09:24:38;17.80;99.90
40153;DHT22;26371;56.992;23.912;2023-07-24T09:27:06;17.80;99.90
40153;DHT22;26371;56.992;23.912;2023-07-24T09:29:35;17.80;99.90
40153;DHT22;26371;56.992;23.912;2023-07-24T09:32:05;17.80;99.90
40153;DHT22;26371;56.992;23.912;2023-07-24T09:34:34;17.90;99.90
40153;DHT22;26371;56.992;23.912;2023-07-24T09:37:02;17.90;99.90
40153;DHT22;26371;56.992;23.912;2023-07-24T09:39:31;17.80;99.90
40153;DHT22;26371;56.992;23.912;2023-07-24T09:42:04;17.80;99.90
40153;DHT22;26371;56.992;23.912;2023-07-24T09:44:33;17.70;99.90
40153;DHT22;26371;56.992;23.912;2023-07-24T09:47:01;17.60;99.90
40153;DHT22;26371;56.992;23.912;2023-07-24T09:49:51;17.60;99.90
40153;DHT22;26371;56.992;23.912;2023-07-24T09:52:20;17.50;99.90
40153;DHT22;26371;56.992;23.912;2023-07-24T09:54:51;17.50;99.90
40153;DHT22;26371;56.992;23.912;2023-07-24T09:57:22;17.60;99.90
40153;DHT22;26371;56.992;23.912;2023-07-24T09:59:52;17.50;99.90
40153;DHT22;26371;56.992;23.912;2023-07-24T10:02:21;17.50;99.90
40153;DHT22;26371;56.992;23.912;2023-07-24T10:04:52;17.50;99.90
40153;DHT22;26371;56.992;23.912;2023-07-24T10:07:21;17.50;99.90
40153;DHT22;26371;56.992;23.912;2023-07-24T10:09:50;17.50;99.90
40153;DHT22;26371;56.992;23.912;2023-07-24T10:12:19;17.60;99.90
40153;DHT22;26371;56.992;23.912;2023-07-24T10:14:48;17.60;99.90
40153;DHT22;26371;56.992;23.912;2023-07-24T10:17:24;17.70;99.90
40153;DHT22;26371;56.992;23.912;2023-07-24T10:20:01;17.60;99.90
40153;DHT22;26371;56.992;23.912;2023-07-24T10:22:29;17.60;99.90
40153;DHT22;26371;56.992;23.912;2023-07-24T10:24:58;17.60;99.90
40153;DHT22;26371;56.992;23.912;2023-07-24T10:27:26;17.50;99.90
40153;DHT22;26371;56.992;23.912;2023-07-24T10:29:59;17.50;99.90
40153;DHT22;26371;56.992;23.912;2023-07-24T10:32:44;17.50;99.90
40153;DHT22;26371;56.992;23.912;2023-07-24T10:35:14;17.40;99.90
40153;DHT22;26371;56.992;23.912;2023-07-24T10:37:45;17.40;99.90
40153;DHT22;26371;56.992;23.912;2023-07-24T10:40:18;17.30;99.90
40153;DHT22;26371;56.992;23.912;2023-07-24T10:42:47;17.30;99.90
40153;DHT22;26371;56.992;23.912;2023-07-24T10:45:26;17.20;99.90
40153;DHT22;26371;56.992;23.912;2023-07-24T10:47:54;17.20;99.90
40153;DHT22;26371;56.992;23.912;2023-07-24T10:50:24;17.30;99.90
40153;DHT22;26371;56.992;23.912;2023-07-24T10:52:53;17.30;99.90
40153;DHT22;26371;56.992;23.912;2023-07-24T10:55:22;17.30;99.90
40153;DHT22;26371;56.992;23.912;2023-07-24T10:57:52;17.30;99.90
40153;DHT22;26371;56.992;23.912;2023-07-24T11:00:22;17.30;99.90
40153;DHT22;26371;56.992;23.912;2023-07-24T11:02:52;17.20;99.90
40153;DHT22;26371;56.992;23.912;2023-07-24T11:05:20;17.10;99.90
40153;DHT22;26371;56.992;23.912;2023-07-24T11:07:50;17.10;99.90
40153;DHT22;26371;56.992;23.912;2023-07-24T11:10:20;17.00;99.90
40153;DHT22;26371;56.992;23.912;2023-07-24T11:12:48;17.00;99.90
40153;DHT22;26371;56.992;23.912;2023-07-24T11:15:23;17.00;99.90
40153;DHT22;26371;56.992;23.912;2023-07-24T11:17:52;17.00;99.90
40153;DHT22;26371;56.992;23.912;2023-07-24T11:20:20;17.00;99.90
40153;DHT22;26371;56.992;23.912;2023-07-24T11:22:49;17.00;99.90
40153;DHT22;26371;56.992;23.912;2023-07-24T11:25:18;17.10;99.90
40153;DHT22;26371;56.992;23.912;2023-07-24T11:27:47;17.10;99.90
40153;DHT22;26371;56.992;23.912;2023-07-24T11:30:19;17.20;99.90
40153;DHT22;26371;56.992;23.912;2023-07-24T11:32:48;17.20;99.90
40153;DHT22;26371;56.992;23.912;2023-07-24T11:35:16;17.10;99.90
40153;DHT22;26371;56.992;23.912;2023-07-24T11:37:45;17.00;99.90
40153;DHT22;26371;56.992;23.912;2023-07-24T11:40:13;16.90;99.90
40153;DHT22;26371;56.992;23.912;2023-07-24T11:42:44;16.80;99.90
40153;DHT22;26371;56.992;23.912;2023-07-24T11:45:12;16.80;99.90
40153;DHT22;26371;56.992;23.912;2023-07-24T11:47:42;16.70;99.90
40153;DHT22;26371;56.992;23.912;2023-07-24T11:50:10;16.60;99.90
40153;DHT22;26371;56.992;23.912;2023-07-24T11:52:39;16.50;99.90
40153;DHT22;26371;56.992;23.912;2023-07-24T11:55:10;16.50;99.90
40153;DHT22;26371;56.992;23.912;2023-07-24T11:57:39;16.50;99.90
40153;DHT22;26371;56.992;23.912;2023-07-24T12:00:19;16.60;99.90
40153;DHT22;26371;56.992;23.912;2023-07-24T12:02:48;16.60;99.90
40153;DHT22;26371;56.992;23.912;2023-07-24T12:05:16;16.60;99.90
40153;DHT22;26371;56.992;23.912;2023-07-24T12:07:45;16.60;99.90
40153;DHT22;26371;56.992;23.912;2023-07-24T12:10:24;16.60;99.90
40153;DHT22;26371;56.992;23.912;2023-07-24T12:12:52;16.60;99.90
40153;DHT22;26371;56.992;23.912;2023-07-24T12:15:22;16.60;99.90
40153;DHT22;26371;56.992;23.912;2023-07-24T12:17:50;16.60;99.90
40153;DHT22;26371;56.992;23.912;2023-07-24T12:20:19;16.60;99.90
40153;DHT22;26371;56.992;23.912;2023-07-24T12:22:47;16.60;99.90
40153;DHT22;26371;56.992;23.912;2023-07-24T12:25:16;16.60;99.90
40153;DHT22;26371;56.992;23.912;2023-07-24T12:27:44;16.60;99.90
40153;DHT22;26371;56.992;23.912;2023-07-24T12:30:12;16.60;99.90
40153;DHT22;26371;56.992;23.912;2023-07-24T12:32:42;16.60;99.90
40153;DHT22;26371;56.992;23.912;2023-07-24T12:35:11;16.70;99.90
40153;DHT22;26371;56.992;23.912;2023-07-24T12:37:43;16.70;99.90
40153;DHT22;26371;56.992;23.912;2023-07-24T12:40:12;16.70;99.90
40153;DHT22;26371;56.992;23.912;2023-07-24T12:42:41;16.70;99.90
40153;DHT22;26371;56.992;23.912;2023-07-24T12:45:09;16.70;99.90
40153;DHT22;26371;56.992;23.912;2023-07-24T12:47:37;16.70;99.90
40153;DHT22;26371;56.992;23.912;2023-07-24T12:50:10;16.70;99.90
40153;DHT22;26371;56.992;23.912;2023-07-24T12:52:38;16.60;99.90
40153;DHT22;26371;56.992;23.912;2023-07-24T12:55:08;16.70;99.90
40153;DHT22;26371;56.992;23.912;2023-07-24T12:57:36;16.70;99.90
40153;DHT22;26371;56.992;23.912;2023-07-24T13:00:05;16.70;99.90
40153;DHT22;26371;56.992;23.912;2023-07-24T13:02:35;16.80;99.90
40153;DHT22;26371;56.992;23.912;2023-07-24T13:05:03;16.80;99.90
40153;DHT22;26371;56.992;23.912;2023-07-24T13:07:33;16.80;99.90
40153;DHT22;26371;56.992;23.912;2023-07-24T13:10:02;16.80;99.90
40153;DHT22;26371;56.992;23.912;2023-07-24T13:12:31;16.80;99.90
40153;DHT22;26371;56.992;23.912;2023-07-24T13:14:59;16.80;99.90
40153;DHT22;26371;56.992;23.912;2023-07-24T13:17:27;16.90;99.90
40153;DHT22;26371;56.992;23.912;2023-07-24T13:19:57;16.80;99.90
40153;DHT22;26371;56.992;23.912;2023-07-24T13:22:25;16.80;99.90
40153;DHT22;26371;56.992;23.912;2023-07-24T13:24:56;16.70;99.90
40153;DHT22;26371;56.992;23.912;2023-07-24T13:27:25;16.70;99.90
40153;DHT22;26371;56.992;23.912;2023-07-24T13:29:53;16.80;99.90
40153;DHT22;26371;56.992;23.912;2023-07-24T13:32:22;16.80;99.90
40153;DHT22;26371;56.992;23.912;2023-07-24T13:34:50;16.80;99.90
40153;DHT22;26371;56.992;23.912;2023-07-24T13:37:19;16.80;99.90
40153;DHT22;26371;56.992;23.912;2023-07-24T13:39:48;16.90;99.90
40153;DHT22;26371;56.992;23.912;2023-07-24T13:42:18;16.90;99.90
40153;DHT22;26371;56.992;23.912;2023-07-24T13:44:46;16.90;99.90
40153;DHT22;26371;56.992;23.912;2023-07-24T13:47:15;16.90;99.90
40153;DHT22;26371;56.992;23.912;2023-07-24T13:49:43;17.00;99.90
40153;DHT22;26371;56.992;23.912;2023-07-24T13:52:11;17.00;99.90
40153;DHT22;26371;56.992;23.912;2023-07-24T13:54:40;17.10;99.90
40153;DHT22;26371;56.992;23.912;2023-07-24T13:57:08;17.10;99.90
40153;DHT22;26371;56.992;23.912;2023-07-24T13:59:38;17.20;99.90
40153;DHT22;26371;56.992;23.912;2023-07-24T14:02:06;17.20;99.90
40153;DHT22;26371;56.992;23.912;2023-07-24T14:04:35;17.20;99.90
40153;DHT22;26371;56.992;23.912;2023-07-24T14:07:03;17.30;99.90
40153;DHT22;26371;56.992;23.912;2023-07-24T14:09:32;17.30;99.90
40153;DHT22;26371;56.992;23.912;2023-07-24T14:12:01;17.40;99.90
40153;DHT22;26371;56.992;23.912;2023-07-24T14:14:30;17.40;99.90
40153;DHT22;26371;56.992;23.912;2023-07-24T14:17:00;17.40;99.90
40153;DHT22;26371;56.992;23.912;2023-07-24T14:19:29;17.40;99.90
40153;DHT22;26371;56.992;23.912;2023-07-24T14:21:57;17.40;99.90
40153;DHT22;26371;56.992;23.912;2023-07-24T14:24:26;17.40;99.90
40153;DHT22;26371;56.992;23.912;2023-07-24T14:26:54;17.40;99.90
40153;DHT22;26371;56.992;23.912;2023-07-24T14:29:22;17.40;99.90
40153;DHT22;26371;56.992;23.912;2023-07-24T14:31:51;17.40;99.90
40153;DHT22;26371;56.992;23.912;2023-07-24T14:34:21;17.40;99.90
40153;DHT22;26371;56.992;23.912;2023-07-24T14:36:50;17.40;99.90
40153;DHT22;26371;56.992;23.912;2023-07-24T14:39:20;17.40;99.90
40153;DHT22;26371;56.992;23.912;2023-07-24T14:41:49;17.40;99.90
40153;DHT22;26371;56.992;23.912;2023-07-24T14:44:17;17.40;99.90
40153;DHT22;26371;56.992;23.912;2023-07-24T14:46:45;17.40;99.90
40153;DHT22;26371;56.992;23.912;2023-07-24T14:49:14;17.40;99.90
40153;DHT22;26371;56.992;23.912;2023-07-24T14:51:44;17.40;99.90
40153;DHT22;26371;56.992;23.912;2023-07-24T14:54:12;17.40;99.90
40153;DHT22;26371;56.992;23.912;2023-07-24T14:56:40;17.30;99.90
40153;DHT22;26371;56.992;23.912;2023-07-24T14:59:25;17.30;99.90
40153;DHT22;26371;56.992;23.912;2023-07-24T15:01:53;17.30;99.90
40153;DHT22;26371;56.992;23.912;2023-07-24T15:04:22;17.20;99.90
40153;DHT22;26371;56.992;23.912;2023-07-24T15:06:52;17.20;99.90
40153;DHT22;26371;56.992;23.912;2023-07-24T15:09:20;17.20;99.90
40153;DHT22;26371;56.992;23.912;2023-07-24T15:11:48;17.20;99.90
40153;DHT22;26371;56.992;23.912;2023-07-24T15:14:17;17.30;99.90
40153;DHT22;26371;56.992;23.912;2023-07-24T15:16:45;17.30;99.90
40153;DHT22;26371;56.992;23.912;2023-07-24T15:19:16;17.50;99.90
40153;DHT22;26371;56.992;23.912;2023-07-24T15:24:15;18.00;99.90
40153;DHT22;26371;56.992;23.912;2023-07-24T15:26:45;17.80;99.90
40153;DHT22;26371;56.992;23.912;2023-07-24T15:29:13;18.00;99.90
40153;DHT22;26371;56.992;23.912;2023-07-24T15:31:45;18.10;99.90
40153;DHT22;26371;56.992;23.912;2023-07-24T15:34:14;18.20;99.90
40153;DHT22;26371;56.992;23.912;2023-07-24T15:36:42;18.30;99.90
40153;DHT22;26371;56.992;23.912;2023-07-24T15:39:11;18.30;99.90
40153;DHT22;26371;56.992;23.912;2023-07-24T15:41:40;18.40;99.90
40153;DHT22;26371;56.992;23.912;2023-07-24T15:44:11;18.40;99.90
40153;DHT22;26371;56.992;23.912;2023-07-24T15:46:39;18.30;99.90
40153;DHT22;26371;56.992;23.912;2023-07-24T15:49:08;18.30;99.90
40153;DHT22;26371;56.992;23.912;2023-07-24T15:51:36;18.30;99.90
40153;DHT22;26371;56.992;23.912;2023-07-24T15:54:07;18.30;99.90
40153;DHT22;26371;56.992;23.912;2023-07-24T15:56:37;18.20;99.90
40153;DHT22;26371;56.992;23.912;2023-07-24T15:59:07;18.30;99.90
40153;DHT22;26371;56.992;23.912;2023-07-24T16:01:38;18.40;99.90
40153;DHT22;26371;56.992;23.912;2023-07-24T16:04:06;18.60;99.90
40153;DHT22;26371;56.992;23.912;2023-07-24T16:06:36;18.70;99.90
40153;DHT22;26371;56.992;23.912;2023-07-24T16:09:04;18.80;99.90
40153;DHT22;26371;56.992;23.912;2023-07-24T16:11:32;18.80;99.90
40153;DHT22;26371;56.992;23.912;2023-07-24T16:14:01;18.70;99.90
40153;DHT22;26371;56.992;23.912;2023-07-24T16:16:32;18.70;99.90
40153;DHT22;26371;56.992;23.912;2023-07-24T16:19:13;18.50;99.90
40153;DHT22;26371;56.992;23.912;2023-07-24T16:21:41;18.50;99.90
40153;DHT22;26371;56.992;23.912;2023-07-24T16:24:10;18.50;99.90
40153;DHT22;26371;56.992;23.912;2023-07-24T16:26:38;18.50;99.90
40153;DHT22;26371;56.992;23.912;2023-07-24T16:29:07;18.40;99.90
40153;DHT22;26371;56.992;23.912;2023-07-24T16:31:38;18.40;99.90
40153;DHT22;26371;56.992;23.912;2023-07-24T16:34:07;18.40;99.90
40153;DHT22;26371;56.992;23.912;2023-07-24T16:36:36;18.30;99.90
40153;DHT22;26371;56.992;23.912;2023-07-24T16:39:04;18.30;99.90
40153;DHT22;26371;56.992;23.912;2023-07-24T16:41:33;18.20;99.90
40153;DHT22;26371;56.992;23.912;2023-07-24T16:44:03;18.20;99.90
40153;DHT22;26371;56.992;23.912;2023-07-24T16:46:32;18.10;99.90
40153;DHT22;26371;56.992;23.912;2023-07-24T16:49:03;18.10;99.90
40153;DHT22;26371;56.992;23.912;2023-07-24T16:51:32;18.10;99.90
40153;DHT22;26371;56.992;23.912;2023-07-24T16:54:01;18.10;99.90
40153;DHT22;26371;56.992;23.912;2023-07-24T16:56:29;18.10;99.90
40153;DHT22;26371;56.992;23.912;2023-07-24T16:58:57;18.00;99.90
40153;DHT22;26371;56.992;23.912;2023-07-24T17:01:26;18.00;99.90
40153;DHT22;26371;56.992;23.912;2023-07-24T17:03:55;18.00;99.90